Time;durP1;ratioP1;P1;durP2;ratioP2;P2;SDS_P1;SDS_P2;PMS_P1;PMS_P2;Temp;Humidity;BMP_temperature;BMP_pressure;BME280_temperature;BME280_humidity;BME280_pressure;Samples;Min_cycle;Max_cycle;Signal;HPM_P1;HPM_P2
2021/12/18 00:01:25;;;;;;;4.72;2.22;;;8.20;99.90;;;;;;6192701;23;20031;-92
2021/12/18 00:03:52;;;;;;;8.38;2.80;;;8.40;99.90;;;;;;6167634;23;20020;-92
2021/12/18 00:06:20;;;;;;;5.82;2.60;;;8.50;99.90;;;;;;6193197;23;20020;-92
2021/12/18 00:08:48;;;;;;;5.25;2.28;;;8.50;99.90;;;;;;6167968;23;20017;-92
2021/12/18 00:11:15;;;;;;;5.93;2.53;;;8.60;99.90;;;;;;6166145;23;20322;-93
2021/12/18 00:13:42;;;;;;;3.20;1.63;;;8.60;99.90;;;;;;6167535;23;20024;-92
2021/12/18 00:16:09;;;;;;;7.90;2.10;;;8.60;99.90;;;;;;6191879;23;20023;-92
2021/12/18 00:18:37;;;;;;;4.05;2.25;;;8.60;99.90;;;;;;6191754;23;20019;-92
2021/12/18 00:21:07;;;;;;;3.28;1.75;;;8.60;99.90;;;;;;6167280;23;20024;-92
2021/12/18 00:23:34;;;;;;;5.70;1.40;;;8.60;99.90;;;;;;6192270;23;20020;-92
2021/12/18 00:26:01;;;;;;;4.88;1.98;;;8.50;99.90;;;;;;6165979;23;20524;-91
2021/12/18 00:28:28;;;;;;;4.78;1.70;;;8.60;99.90;;;;;;6164932;23;20024;-91
2021/12/18 00:30:55;;;;;;;3.28;2.00;;;8.60;99.90;;;;;;6165974;23;20016;-92
2021/12/18 00:33:23;;;;;;;6.05;1.60;;;8.50;99.90;;;;;;6167456;23;20024;-91
2021/12/18 00:35:50;;;;;;;3.38;1.63;;;8.50;99.90;;;;;;6166922;23;20360;-92
2021/12/18 00:38:17;;;;;;;2.53;1.98;;;8.50;99.90;;;;;;6167058;23;20043;-92
2021/12/18 00:40:47;;;;;;;5.55;2.03;;;8.50;99.90;;;;;;6191543;23;20044;-91
2021/12/18 00:43:26;;;;;;;5.13;2.05;;;8.60;99.90;;;;;;6192491;23;20024;-91
2021/12/18 00:45:53;;;;;;;7.70;1.67;;;8.50;99.90;;;;;;6192275;23;20164;-92
2021/12/18 00:48:20;;;;;;;5.18;1.48;;;8.50;99.90;;;;;;6166613;23;20024;-92
2021/12/18 00:50:48;;;;;;;5.80;1.35;;;8.50;99.90;;;;;;6166760;23;20020;-91
2021/12/18 00:53:15;;;;;;;4.95;1.13;;;8.40;99.90;;;;;;6191106;23;20027;-92
2021/12/18 00:55:43;;;;;;;3.45;1.55;;;8.50;99.90;;;;;;6166952;23;20012;-91
2021/12/18 00:58:10;;;;;;;4.28;1.55;;;8.50;99.90;;;;;;6217763;23;20019;-91
2021/12/18 01:00:39;;;;;;;2.70;0.90;;;8.50;99.90;;;;;;6191326;23;20444;-91
2021/12/18 01:03:15;;;;;;;3.22;1.58;;;8.50;99.90;;;;;;6191548;23;20028;-91
2021/12/18 01:05:43;;;;;;;3.10;1.70;;;8.50;99.90;;;;;;6167086;23;20028;-91
2021/12/18 01:08:11;;;;;;;2.17;0.88;;;8.50;99.90;;;;;;6191409;23;20036;-91
2021/12/18 01:11:32;;;;;;;1.40;0.60;;;8.50;99.90;;;;;;6165810;23;20072;-91
2021/12/18 01:13:31;;;;;;;3.03;1.30;;;8.50;99.90;;;;;;6169868;23;20035;-91
2021/12/18 01:16:07;;;;;;;4.03;1.27;;;8.50;99.90;;;;;;6190573;23;20344;-92
2021/12/18 01:24:06;;;;;;;2.28;0.73;;;8.50;99.90;;;;;;6189542;23;20031;-91
2021/12/18 01:26:33;;;;;;;1.63;0.68;;;8.50;99.90;;;;;;6164966;23;20056;-91
2021/12/18 01:29:00;;;;;;;1.75;0.98;;;8.50;99.90;;;;;;6165074;23;20024;-92
2021/12/18 01:31:27;;;;;;;1.33;0.73;;;8.50;99.90;;;;;;6165177;23;20107;-91
2021/12/18 01:33:54;;;;;;;2.25;0.77;;;8.50;99.90;;;;;;6165246;23;20440;-92
2021/12/18 01:36:22;;;;;;;6.68;1.40;;;8.40;99.90;;;;;;6164790;23;20063;-92
2021/12/18 01:38:49;;;;;;;2.20;0.80;;;8.40;99.90;;;;;;6189596;23;20048;-91
2021/12/18 01:41:17;;;;;;;3.65;1.30;;;8.50;99.90;;;;;;6164793;23;20025;-91
2021/12/18 01:52:03;;;;;;;3.45;1.10;;;8.50;99.90;;;;;;6189223;23;20016;-92
2021/12/18 01:54:30;;;;;;;3.22;0.98;;;8.40;99.90;;;;;;6166465;23;20024;-92
2021/12/18 01:56:59;;;;;;;1.77;0.73;;;8.40;99.90;;;;;;6191438;23;20020;-91
2021/12/18 01:59:36;;;;;;;2.22;0.88;;;8.40;99.90;;;;;;6167995;23;20100;-91
2021/12/18 02:02:03;;;;;;;3.83;0.90;;;8.40;99.90;;;;;;6166649;23;20025;-91
2021/12/18 02:04:30;;;;;;;1.60;0.68;;;8.40;99.90;;;;;;6166811;23;20087;-91
2021/12/18 02:06:59;;;;;;;1.90;0.77;;;8.40;99.90;;;;;;6190722;23;20040;-91
2021/12/18 02:09:38;;;;;;;1.77;0.90;;;8.40;99.90;;;;;;6191661;23;20027;-91
2021/12/18 02:12:06;;;;;;;1.40;0.80;;;8.40;99.90;;;;;;6191023;23;20043;-92
2021/12/18 02:23:04;;;;;;;2.83;0.60;;;8.30;99.90;;;;;;6190933;23;20047;-92
2021/12/18 02:25:35;;;;;;;1.67;0.70;;;8.30;99.90;;;;;;6166774;23;20519;-91
2021/12/18 02:28:07;;;;;;;2.38;0.68;;;8.30;99.90;;;;;;6167174;23;20432;-92
2021/12/18 02:30:34;;;;;;;2.80;0.88;;;8.30;99.90;;;;;;6166306;23;20441;-92
2021/12/18 02:33:01;;;;;;;3.47;1.00;;;8.30;99.90;;;;;;6167378;23;20017;-91
2021/12/18 02:35:38;;;;;;;2.97;0.65;;;8.30;99.90;;;;;;6166043;23;20095;-91
2021/12/18 02:38:13;;;;;;;1.42;0.47;;;8.30;99.90;;;;;;6166405;23;20059;-91
2021/12/18 02:41:09;;;;;;;2.70;0.93;;;8.30;99.90;;;;;;6166955;23;20460;-92
2021/12/18 02:43:32;;;;;;;3.22;1.00;;;8.30;99.90;;;;;;6217679;23;20463;-92
2021/12/18 02:46:00;;;;;;;2.65;0.50;;;8.30;99.90;;;;;;6166596;23;20075;-92
2021/12/18 02:48:28;;;;;;;3.03;0.98;;;8.30;99.90;;;;;;6166522;23;20079;-91
2021/12/18 02:50:57;;;;;;;1.92;0.85;;;8.30;99.90;;;;;;6166103;23;20414;-93
2021/12/18 02:53:26;;;;;;;3.13;0.63;;;8.30;99.90;;;;;;6166020;23;20016;-91
2021/12/18 02:55:59;;;;;;;2.33;0.60;;;8.30;99.90;;;;;;6165822;23;20444;-91
2021/12/18 02:58:27;;;;;;;2.85;0.65;;;8.30;99.90;;;;;;6165784;23;20040;-92
2021/12/18 03:00:56;;;;;;;2.47;0.73;;;8.20;99.90;;;;;;6166397;23;20074;-91
2021/12/18 03:03:27;;;;;;;1.63;0.47;;;8.20;99.90;;;;;;6217089;23;20012;-92
2021/12/18 03:06:08;;;;;;;2.60;1.00;;;8.20;99.90;;;;;;6190652;23;20492;-92
2021/12/18 03:08:52;;;;;;;5.07;0.43;;;8.10;99.90;;;;;;6165813;23;20024;-91
2021/12/18 03:25:03;;;;;;;2.50;0.60;;;8.10;99.90;;;;;;6190531;23;20364;-92
2021/12/18 03:27:30;;;;;;;2.00;0.80;;;8.10;99.90;;;;;;6165659;23;20495;-92
2021/12/18 03:29:57;;;;;;;3.20;0.47;;;8.20;99.90;;;;;;6165819;23;20020;-91
2021/12/18 03:32:25;;;;;;;2.92;0.80;;;8.20;99.90;;;;;;6190758;23;20066;-92
2021/12/18 03:34:53;;;;;;;1.40;0.45;;;8.10;99.90;;;;;;6190237;23;20074;-92
2021/12/18 03:37:20;;;;;;;2.35;0.40;;;8.20;99.90;;;;;;6165518;23;20071;-91
2021/12/18 03:39:48;;;;;;;3.38;0.73;;;8.10;99.90;;;;;;6165947;23;20036;-92
2021/12/18 03:42:16;;;;;;;2.58;0.52;;;8.10;99.90;;;;;;6165932;23;20017;-91
2021/12/18 03:44:43;;;;;;;1.48;0.43;;;8.00;99.90;;;;;;6165742;23;20083;-92
2021/12/18 03:47:10;;;;;;;2.33;0.60;;;8.00;99.90;;;;;;6165229;23;20107;-92
2021/12/18 03:49:37;;;;;;;1.85;0.50;;;8.00;99.90;;;;;;6166519;23;20024;-91
2021/12/18 03:52:04;;;;;;;3.63;0.80;;;8.00;99.90;;;;;;6165552;23;20017;-92
2021/12/18 03:54:32;;;;;;;1.80;0.32;;;8.00;99.90;;;;;;6165448;23;20025;-91
2021/12/18 03:56:59;;;;;;;1.77;0.52;;;7.80;99.90;;;;;;6216815;23;20031;-91
2021/12/18 03:59:26;;;;;;;2.53;0.30;;;7.80;99.90;;;;;;6191030;23;20016;-92
2021/12/18 04:01:53;;;;;;;2.00;0.50;;;7.90;99.90;;;;;;6190671;23;20326;-91
2021/12/18 04:04:20;;;;;;;1.85;0.40;;;7.90;99.90;;;;;;6166603;23;20092;-91
2021/12/18 04:06:48;;;;;;;1.20;0.40;;;7.90;99.90;;;;;;6190768;23;20100;-91
2021/12/18 04:09:15;;;;;;;1.23;0.45;;;8.00;99.90;;;;;;6165359;23;20088;-91
2021/12/18 04:11:43;;;;;;;2.75;0.60;;;8.00;99.90;;;;;;6165401;23;20409;-92
2021/12/18 04:14:11;;;;;;;2.67;0.52;;;8.00;99.90;;;;;;6165420;23;20021;-92
2021/12/18 04:16:38;;;;;;;2.38;0.40;;;8.00;99.90;;;;;;6190110;23;20013;-92
2021/12/18 04:19:05;;;;;;;2.97;0.45;;;8.00;99.90;;;;;;6190199;23;20352;-91
2021/12/18 04:21:33;;;;;;;1.73;0.90;;;8.00;99.90;;;;;;6165005;23;20031;-92
2021/12/18 04:24:03;;;;;;;3.17;0.80;;;8.00;99.90;;;;;;6165361;23;20082;-92
2021/12/18 04:26:34;;;;;;;1.58;0.70;;;8.00;99.90;;;;;;6164887;23;20103;-92
2021/12/18 04:29:01;;;;;;;1.83;0.40;;;8.00;99.90;;;;;;6216815;23;20027;-91
2021/12/18 04:31:29;;;;;;;2.70;0.57;;;8.00;99.90;;;;;;6189926;23;20024;-91
2021/12/18 04:33:56;;;;;;;2.70;0.60;;;8.00;99.90;;;;;;6166010;23;20071;-92
2021/12/18 04:36:24;;;;;;;1.83;0.50;;;8.00;99.90;;;;;;6165102;23;20047;-92
2021/12/18 04:38:51;;;;;;;2.17;0.60;;;8.00;99.90;;;;;;6189885;23;20012;-92
2021/12/18 04:41:24;;;;;;;2.45;0.60;;;8.00;99.90;;;;;;6190009;23;20025;-91
2021/12/18 04:43:52;;;;;;;1.70;0.38;;;8.00;99.90;;;;;;6190005;23;20449;-92
2021/12/18 04:46:20;;;;;;;3.10;0.60;;;8.00;99.90;;;;;;6165143;23;20459;-92
2021/12/18 04:48:47;;;;;;;1.67;0.43;;;8.00;99.90;;;;;;6164897;23;20048;-92
2021/12/18 04:51:14;;;;;;;2.88;0.60;;;8.00;99.90;;;;;;6165409;23;20337;-91
2021/12/18 04:53:41;;;;;;;2.53;0.85;;;8.00;99.90;;;;;;6190311;23;20023;-92
2021/12/18 04:56:08;;;;;;;3.20;0.68;;;8.00;99.90;;;;;;6189373;23;20021;-92
2021/12/18 04:58:35;;;;;;;2.13;0.50;;;8.00;99.90;;;;;;6165050;23;20020;-92
2021/12/18 05:01:02;;;;;;;5.63;0.50;;;8.00;99.90;;;;;;6164640;23;20032;-92
2021/12/18 05:03:30;;;;;;;1.50;0.40;;;8.00;99.90;;;;;;6190167;23;20040;-92
2021/12/18 05:06:00;;;;;;;1.40;0.40;;;7.90;99.90;;;;;;6164946;23;20071;-91
2021/12/18 05:08:27;;;;;;;1.75;0.65;;;7.90;99.90;;;;;;6189112;23;20028;-92
2021/12/18 05:10:54;;;;;;;2.42;0.68;;;7.90;99.90;;;;;;6189611;23;20020;-92
2021/12/18 05:13:21;;;;;;;2.10;0.57;;;7.90;99.90;;;;;;6165154;23;20397;-91
2021/12/18 05:15:51;;;;;;;2.47;0.73;;;7.90;99.90;;;;;;6164712;23;20507;-91
2021/12/18 05:18:18;;;;;;;3.72;1.30;;;7.90;99.90;;;;;;6164560;23;20016;-92
2021/12/18 05:20:46;;;;;;;6.35;1.17;;;7.90;99.90;;;;;;6165046;23;20051;-92
2021/12/18 05:23:13;;;;;;;3.28;1.35;;;7.90;99.90;;;;;;6165274;23;20079;-91
2021/12/18 05:25:40;;;;;;;2.30;0.93;;;7.90;99.90;;;;;;6166693;23;20031;-91
2021/12/18 05:28:08;;;;;;;3.60;0.93;;;7.80;99.90;;;;;;6165956;23;20449;-92
2021/12/18 05:30:35;;;;;;;4.03;1.38;;;7.80;99.90;;;;;;6167474;23;20090;-92
2021/12/18 05:33:02;;;;;;;5.05;1.33;;;7.90;99.90;;;;;;6167073;23;20020;-92
2021/12/18 05:35:30;;;;;;;3.90;1.08;;;7.80;99.90;;;;;;6167113;23;20017;-91
2021/12/18 05:38:04;;;;;;;4.90;0.85;;;7.70;99.90;;;;;;6167179;23;20063;-92
2021/12/18 05:40:34;;;;;;;3.80;1.00;;;7.70;99.90;;;;;;6168442;23;20017;-91
2021/12/18 05:43:00;;;;;;;4.00;1.55;;;7.80;99.90;;;;;;6167522;23;20051;-92
2021/12/18 05:45:28;;;;;;;4.03;0.90;;;7.70;99.90;;;;;;6167217;23;20025;-91
2021/12/18 05:47:55;;;;;;;6.63;1.13;;;7.70;99.90;;;;;;6167041;23;20029;-93
2021/12/18 05:50:27;;;;;;;3.63;1.10;;;7.80;99.90;;;;;;6166598;23;20086;-91
2021/12/18 05:52:59;;;;;;;1.98;0.88;;;7.70;99.90;;;;;;6167326;23;20013;-91
2021/12/18 05:55:29;;;;;;;3.60;1.20;;;7.80;99.90;;;;;;6192265;23;20432;-91
2021/12/18 05:57:56;;;;;;;4.00;1.27;;;7.80;99.90;;;;;;6166746;23;20021;-91
2021/12/18 06:00:24;;;;;;;4.10;1.27;;;7.80;99.90;;;;;;6191323;23;20196;-92
2021/12/18 06:02:51;;;;;;;5.28;1.70;;;7.80;99.90;;;;;;6166524;23;20353;-92
2021/12/18 06:05:18;;;;;;;3.40;1.55;;;7.80;99.90;;;;;;6191566;23;20032;-91
2021/12/18 06:07:56;;;;;;;5.43;1.10;;;7.80;99.90;;;;;;6166649;23;20389;-92
2021/12/18 06:10:29;;;;;;;2.63;0.93;;;7.70;99.90;;;;;;6167618;23;20031;-92
2021/12/18 06:12:59;;;;;;;4.63;1.52;;;7.70;99.90;;;;;;6166456;23;20024;-92
2021/12/18 06:15:28;;;;;;;5.68;1.75;;;7.70;99.90;;;;;;6191667;23;20061;-91
2021/12/18 06:17:55;;;;;;;3.45;1.15;;;7.60;99.90;;;;;;6166381;23;20440;-92
2021/12/18 06:20:24;;;;;;;3.65;0.95;;;7.50;99.90;;;;;;6166611;23;20024;-91
2021/12/18 06:22:50;;;;;;;6.13;1.17;;;7.70;99.90;;;;;;6167006;23;20463;-91
2021/12/18 06:25:18;;;;;;;5.90;1.83;;;7.70;99.90;;;;;;6167120;23;20091;-92
2021/12/18 06:27:45;;;;;;;5.32;1.77;;;7.70;99.90;;;;;;6166793;23;20025;-91
2021/12/18 06:30:12;;;;;;;7.00;2.03;;;7.60;99.90;;;;;;6191022;23;20020;-91
2021/12/18 06:32:39;;;;;;;5.63;2.17;;;7.60;99.90;;;;;;6166659;23;20017;-91
2021/12/18 06:35:08;;;;;;;3.63;1.25;;;7.60;99.90;;;;;;6191541;23;20016;-92
2021/12/18 06:37:35;;;;;;;3.95;0.73;;;7.70;99.90;;;;;;6191253;23;20024;-91
2021/12/18 06:40:03;;;;;;;4.05;1.45;;;7.70;99.90;;;;;;6166174;23;20043;-92
2021/12/18 06:42:39;;;;;;;5.50;1.10;;;7.70;99.90;;;;;;6191918;23;20104;-92
2021/12/18 06:45:07;;;;;;;2.97;1.13;;;7.60;99.90;;;;;;6166563;23;20016;-92
2021/12/18 06:47:34;;;;;;;3.80;1.35;;;7.50;99.90;;;;;;6165960;23;20021;-92
2021/12/18 06:50:03;;;;;;;3.78;1.10;;;7.50;99.90;;;;;;6166382;23;20056;-92
2021/12/18 06:52:29;;;;;;;2.42;1.15;;;7.40;99.90;;;;;;6193874;23;20012;-92
2021/12/18 06:54:57;;;;;;;4.07;1.13;;;7.50;99.90;;;;;;6166762;23;20029;-92
2021/12/18 06:57:24;;;;;;;2.95;0.90;;;7.60;99.90;;;;;;6191666;23;20036;-92
2021/12/18 06:59:51;;;;;;;4.03;0.88;;;7.70;99.90;;;;;;6167136;23;20091;-92
2021/12/18 07:02:19;;;;;;;1.80;0.60;;;7.60;99.90;;;;;;6166821;23;20028;-91
2021/12/18 07:04:47;;;;;;;4.72;1.00;;;7.50;99.90;;;;;;6190726;23;20020;-92
2021/12/18 07:07:14;;;;;;;3.53;0.90;;;7.60;99.90;;;;;;6190689;23;20020;-91
2021/12/18 07:09:41;;;;;;;4.57;1.05;;;7.60;99.90;;;;;;6190981;23;20040;-91
2021/12/18 07:12:10;;;;;;;2.60;0.63;;;7.60;99.90;;;;;;6191232;23;20017;-91
2021/12/18 07:14:38;;;;;;;4.35;0.75;;;7.50;99.90;;;;;;6166257;23;20028;-92
2021/12/18 07:17:05;;;;;;;2.85;0.82;;;7.60;99.90;;;;;;6165858;23;20104;-91
2021/12/18 07:19:33;;;;;;;4.20;0.98;;;7.70;99.90;;;;;;6167278;23;20016;-91
2021/12/18 07:22:00;;;;;;;4.18;0.88;;;7.60;99.90;;;;;;6165916;23;20024;-92
2021/12/18 07:24:28;;;;;;;2.53;0.70;;;7.50;99.90;;;;;;6190832;23;20020;-91
2021/12/18 07:26:56;;;;;;;3.42;0.75;;;7.60;99.90;;;;;;6166176;23;20107;-91
2021/12/18 07:29:23;;;;;;;4.53;1.27;;;7.60;99.90;;;;;;6165971;23;20050;-92
2021/12/18 07:31:51;;;;;;;3.00;0.73;;;7.60;99.90;;;;;;6165698;23;20395;-92
2021/12/18 07:34:18;;;;;;;3.20;0.70;;;7.60;99.90;;;;;;6190627;23;20020;-92
2021/12/18 07:36:45;;;;;;;2.42;0.68;;;7.60;99.90;;;;;;6165423;23;20012;-91
2021/12/18 07:39:14;;;;;;;2.40;0.93;;;7.60;99.90;;;;;;6190628;23;20024;-92
2021/12/18 07:41:41;;;;;;;2.58;0.70;;;7.60;99.90;;;;;;6190524;23;20412;-91
2021/12/18 07:44:08;;;;;;;4.68;1.20;;;7.60;99.90;;;;;;6165821;23;20028;-92
2021/12/18 07:46:37;;;;;;;1.77;0.95;;;7.60;99.90;;;;;;6165523;23;20389;-92
2021/12/18 07:49:06;;;;;;;2.45;0.75;;;7.60;99.90;;;;;;6165703;23;20075;-91
2021/12/18 07:51:33;;;;;;;3.05;0.80;;;7.60;99.90;;;;;;6165610;23;20443;-92
2021/12/18 07:54:01;;;;;;;3.65;0.93;;;7.60;99.90;;;;;;6165889;23;20491;-92
2021/12/18 07:56:28;;;;;;;3.17;1.30;;;7.50;99.90;;;;;;6191061;23;20395;-92
2021/12/18 07:58:55;;;;;;;3.55;1.20;;;7.50;99.90;;;;;;6165851;23;20020;-93
2021/12/18 08:01:23;;;;;;;3.83;1.02;;;7.40;99.90;;;;;;6190362;23;20023;-91
2021/12/18 08:03:51;;;;;;;4.95;1.52;;;7.50;99.90;;;;;;6217353;23;20012;-93
2021/12/18 08:06:20;;;;;;;5.75;1.42;;;7.30;99.90;;;;;;6166857;23;20110;-91
2021/12/18 08:08:51;;;;;;;3.03;1.05;;;7.40;99.90;;;;;;6164637;23;20039;-93
2021/12/18 08:11:41;;;;;;;6.53;1.77;;;7.40;99.90;;;;;;6166824;23;20044;-94
2021/12/18 08:14:11;;;;;;;3.92;1.40;;;7.40;99.90;;;;;;6161820;23;20429;-91
2021/12/18 08:16:38;;;;;;;6.75;1.58;;;7.40;99.90;;;;;;6163207;23;20016;-92
2021/12/18 08:19:08;;;;;;;3.30;1.15;;;7.40;99.90;;;;;;6190529;23;20441;-93
2021/12/18 08:25:41;;;;;;;5.82;0.93;;;7.50;99.90;;;;;;6194628;23;20044;-96
2021/12/18 08:29:27;;;;;;;5.22;1.20;;;7.50;99.90;;;;;;6192878;23;20016;-96
2021/12/18 08:32:18;;;;;;;2.60;0.85;;;7.60;99.90;;;;;;6169088;23;20384;-95
2021/12/18 08:42:29;;;;;;;6.20;1.20;;;7.60;99.90;;;;;;6137885;23;20016;-93
2021/12/18 08:45:05;;;;;;;2.45;0.88;;;7.50;99.90;;;;;;6167049;23;20064;-93
2021/12/18 08:47:35;;;;;;;2.58;0.95;;;7.60;99.90;;;;;;6165492;23;20083;-92
2021/12/18 08:50:09;;;;;;;4.63;0.90;;;7.60;99.90;;;;;;6191191;23;20021;-91
2021/12/18 08:52:36;;;;;;;2.58;1.00;;;7.60;99.90;;;;;;6190080;23;20013;-93
2021/12/18 08:55:08;;;;;;;1.77;0.95;;;7.60;99.90;;;;;;6193912;23;20021;-91
2021/12/18 08:57:46;;;;;;;2.13;0.63;;;7.70;99.90;;;;;;6191428;23;20017;-93
2021/12/18 09:00:35;;;;;;;1.35;0.63;;;7.60;99.90;;;;;;6218657;23;20016;-93
2021/12/18 09:03:21;;;;;;;2.22;0.93;;;7.70;99.90;;;;;;6191509;23;20032;-96
2021/12/18 09:06:33;;;;;;;3.13;1.02;;;7.70;99.90;;;;;;6126201;23;20024;-94
2021/12/18 09:09:26;;;;;;;2.50;0.70;;;7.70;99.90;;;;;;6171161;23;20024;-95
2021/12/18 10:00:23;;;;;;;1.33;0.60;;;7.80;99.90;;;;;;6225135;22;20119;-94
2021/12/18 11:58:25;;;;;;;1.17;0.68;;;8.20;99.90;;;;;;6219807;23;20047;-94
2021/12/18 12:01:00;;;;;;;1.40;0.50;;;8.30;99.90;;;;;;6165645;23;20024;-94
2021/12/18 12:03:37;;;;;;;2.30;0.90;;;8.30;99.90;;;;;;6190529;23;20055;-95
2021/12/18 12:06:32;;;;;;;2.15;0.80;;;8.30;99.90;;;;;;6166807;23;20020;-94
2021/12/18 12:09:38;;;;;;;1.88;0.52;;;8.30;99.90;;;;;;6165959;23;20088;-94
2021/12/18 12:12:15;;;;;;;3.33;0.90;;;8.30;99.90;;;;;;6190730;23;20067;-95
2021/12/18 12:14:43;;;;;;;1.23;0.68;;;8.30;99.90;;;;;;6191295;23;20032;-95
2021/12/18 12:17:27;;;;;;;3.05;0.98;;;8.30;99.90;;;;;;6167111;23;20017;-95
2021/12/18 12:20:00;;;;;;;3.95;1.10;;;8.30;99.90;;;;;;6165779;23;20020;-95
2021/12/18 12:22:53;;;;;;;2.50;1.30;;;8.30;99.90;;;;;;6166390;23;20107;-94
2021/12/18 12:26:27;;;;;;;1.77;0.68;;;8.30;99.90;;;;;;6092351;23;20023;-96
2021/12/18 12:34:34;;;;;;;1.88;0.70;;;8.40;99.90;;;;;;6043395;23;20019;-95
2021/12/18 12:37:22;;;;;;;1.88;0.93;;;8.40;99.90;;;;;;6072262;23;20029;-94
2021/12/18 16:29:19;;;;;;;6.80;3.30;;;8.20;99.90;;;;;;6068283;23;20010;-92
2021/12/18 16:45:02;;;;;;;4.28;2.67;;;8.10;99.90;;;;;;6245129;22;20356;-91
